Terminal Aerodrome Forecast
Issued by NWS Jackson, MS

Home | Current Version | Previous Version | Text Only | Print | Product List | Glossary On
Versions: 1 2 3 4 5 6 7 8 9 10 11 12
000
FTUS44 KJAN 200500
TAFHBG
TAF
KHBG 200539Z 2006/2106 VRB02KT P6SM SKC
     FM201030 VRB03KT 3SM BR SCT003
     FM201330 08006KT P6SM FEW050 SCT250
     FM202300 08005KT P6SM SKC=

USA.gov is the U.S. government's official web portal to all federal, state and local government web resources and services.